createdAt,value
2023-04-16T00:00:36.834Z,99980.56
2023-04-16T00:03:04.389Z,99980.44
2023-04-16T00:05:32.322Z,99985.72
2023-04-16T00:07:59.067Z,99984.81
2023-04-16T00:10:26.533Z,99989.06
2023-04-16T00:12:53.504Z,99986.34
2023-04-16T00:15:20.735Z,99992.44
2023-04-16T00:17:48.301Z,99990.63
2023-04-16T00:20:15.983Z,99987.88
2023-04-16T00:22:43.529Z,99986.13
2023-04-16T00:25:13.725Z,99988.78
2023-04-16T00:27:41.309Z,99993.00
2023-04-16T00:30:08.981Z,99985.97
2023-04-16T00:32:37.347Z,99995.53
2023-04-16T00:35:04.965Z,100000.72
2023-04-16T00:37:33.941Z,100000.72
2023-04-16T00:40:01.545Z,100003.44
2023-04-16T00:42:28.643Z,100006.00
2023-04-16T00:44:55.976Z,99998.13
2023-04-16T00:47:26.093Z,99996.41
2023-04-16T00:49:53.455Z,100003.50
2023-04-16T00:52:21.670Z,99999.16
2023-04-16T00:54:48.981Z,100002.59
2023-04-16T00:57:16.811Z,100002.63
2023-04-16T00:59:44.340Z,100002.59
2023-04-16T01:02:12.896Z,100001.88
2023-04-16T01:04:40.435Z,99994.78
2023-04-16T01:07:07.829Z,99995.66
2023-04-16T01:09:34.836Z,99994.78
2023-04-16T01:12:03.583Z,100000.00
2023-04-16T01:14:36.589Z,99993.97
2023-04-16T01:17:04.422Z,99997.44
2023-04-16T01:19:32.424Z,100003.78
2023-04-16T01:21:59.534Z,99991.38
2023-04-16T01:24:26.787Z,99994.00
2023-04-16T01:26:54.130Z,100001.91
2023-04-16T01:29:21.222Z,100001.94
2023-04-16T01:31:50.340Z,99999.31
2023-04-16T01:34:37.919Z,100002.88
2023-04-16T01:37:05.610Z,99993.41
2023-04-16T01:39:32.646Z,99996.09
2023-04-16T01:41:59.858Z,100004.06
2023-04-16T01:44:28.177Z,100001.63
2023-04-16T01:46:55.606Z,99998.84
2023-04-16T01:49:23.939Z,99993.63
2023-04-16T01:51:51.486Z,100001.53
2023-04-16T01:54:18.409Z,99998.97
2023-04-16T01:56:45.526Z,99993.69
2023-04-16T01:59:12.503Z,99999.78
2023-04-16T02:01:44.994Z,99994.47
2023-04-16T02:04:12.801Z,99998.97
2023-04-16T02:06:40.421Z,99998.88
2023-04-16T02:09:07.826Z,100001.69
2023-04-16T02:11:36.010Z,100000.63
2023-04-16T02:14:03.809Z,100004.13
2023-04-16T02:16:31.321Z,100000.66
2023-04-16T02:19:18.666Z,100010.28
2023-04-16T02:21:46.589Z,100004.13
2023-04-16T02:24:14.323Z,100010.16
2023-04-16T02:26:42.949Z,100004.13
2023-04-16T02:29:15.104Z,100006.66
2023-04-16T02:31:46.962Z,100014.66
2023-04-16T02:34:15.012Z,100008.53
2023-04-16T02:36:42.363Z,100010.28
2023-04-16T02:39:10.240Z,100013.88
2023-04-16T02:41:39.367Z,100019.06
2023-04-16T02:44:09.801Z,100011.97
2023-04-16T02:46:37.080Z,100021.66
2023-04-16T02:49:04.057Z,100025.97
2023-04-16T02:51:33.537Z,100030.25
2023-04-16T02:54:01.134Z,100031.28
2023-04-16T02:56:28.576Z,100034.72
2023-04-16T02:58:56.202Z,100040.69
2023-04-16T03:01:24.824Z,100043.34
2023-04-16T03:03:56.543Z,100036.31
2023-04-16T03:06:27.537Z,100047.78
2023-04-16T03:08:56.597Z,100037.97
2023-04-16T03:11:23.964Z,100055.47
2023-04-16T03:13:51.176Z,100049.28
2023-04-16T03:16:19.505Z,100057.13
2023-04-16T03:18:49.426Z,100056.22
2023-04-16T03:21:18.584Z,100056.94
2023-04-16T03:23:49.223Z,100062.28
2023-04-16T03:26:18.963Z,100063.94
2023-04-16T03:28:49.133Z,100070.00
2023-04-16T03:31:18.787Z,100070.84
2023-04-16T03:33:49.612Z,100074.38
2023-04-16T03:36:20.411Z,100071.63
2023-04-16T03:38:49.340Z,100079.53
2023-04-16T03:41:18.479Z,100079.56
2023-04-16T03:43:47.144Z,100076.84
2023-04-16T03:46:14.979Z,100066.28
2023-04-16T03:48:42.745Z,100072.28
2023-04-16T03:51:09.942Z,100068.81
2023-04-16T03:53:37.305Z,100070.44
2023-04-16T03:56:06.887Z,100078.22
2023-04-16T03:58:35.623Z,100077.22
2023-04-16T04:01:03.655Z,100081.53
2023-04-16T04:03:32.490Z,100077.16
2023-04-16T04:06:03.786Z,100069.94
2023-04-16T04:08:33.412Z,100074.25
2023-04-16T04:11:05.485Z,100074.16
2023-04-16T04:13:35.268Z,100074.03
2023-04-16T04:16:05.539Z,100073.13
2023-04-16T04:18:34.421Z,100074.75
2023-04-16T04:21:09.907Z,100069.31
2023-04-16T04:23:41.224Z,100070.16
2023-04-16T04:26:09.994Z,100070.00
2023-04-16T04:28:38.010Z,100072.63
2023-04-16T04:31:06.481Z,100077.69
2023-04-16T04:33:34.560Z,100076.03
2023-04-16T04:36:03.429Z,100084.56
2023-04-16T04:38:33.980Z,100085.34
2023-04-16T04:41:06.517Z,100088.78
2023-04-16T04:43:36.847Z,100086.97
2023-04-16T04:46:05.456Z,100092.34
2023-04-16T04:48:33.669Z,100095.97
2023-04-16T04:51:04.847Z,100092.41
2023-04-16T04:53:34.494Z,100095.91
2023-04-16T04:56:11.743Z,100097.78
2023-04-16T04:58:42.140Z,100103.06
2023-04-16T05:01:09.596Z,100099.78
2023-04-16T05:03:37.198Z,100097.38
2023-04-16T05:06:05.605Z,100099.88
2023-04-16T05:08:33.979Z,100106.72
2023-04-16T05:11:04.680Z,100110.22
2023-04-16T05:13:31.598Z,100115.22
2023-04-16T05:16:00.581Z,100109.28
2023-04-16T05:18:27.957Z,100116.28
2023-04-16T05:20:58.019Z,100115.41
2023-04-16T05:23:25.861Z,100115.31
2023-04-16T05:25:54.782Z,100110.06
2023-04-16T05:28:21.818Z,100108.16
2023-04-16T05:30:49.959Z,100118.66
2023-04-16T05:33:19.284Z,100121.78
2023-04-16T05:35:47.260Z,100122.63
2023-04-16T05:38:16.592Z,100121.84
2023-04-16T05:40:47.306Z,100124.59
2023-04-16T05:43:16.150Z,100127.91
2023-04-16T05:45:44.132Z,100132.03
2023-04-16T05:48:13.015Z,100131.09
2023-04-16T05:50:41.772Z,100136.31
2023-04-16T05:53:09.642Z,100133.72
2023-04-16T05:55:37.551Z,100138.03
2023-04-16T05:58:07.263Z,100142.41
2023-04-16T06:00:36.301Z,100140.34
2023-04-16T06:03:05.504Z,100150.75
2023-04-16T06:05:36.175Z,100149.81
2023-04-16T06:08:04.551Z,100148.97
2023-04-16T06:10:32.744Z,100152.41
2023-04-16T06:13:05.409Z,100153.97
2023-04-16T06:15:33.624Z,100151.22
2023-04-16T06:18:03.568Z,100154.53
2023-04-16T06:20:32.469Z,100155.09
2023-04-16T06:23:02.596Z,100155.59
2023-04-16T06:25:31.653Z,100162.06
2023-04-16T06:27:59.596Z,100159.13
2023-04-16T06:30:27.821Z,100157.81
2023-04-16T06:32:56.016Z,100166.81
2023-04-16T06:35:25.010Z,100164.41
2023-04-16T06:37:53.932Z,100162.00
2023-04-16T06:40:22.095Z,100170.88
2023-04-16T06:42:50.623Z,100161.97
2023-04-16T06:45:20.220Z,100171.66
2023-04-16T06:47:48.707Z,100167.16
2023-04-16T06:50:16.849Z,100173.41
2023-04-16T06:52:46.277Z,100168.41
2023-04-16T06:55:13.436Z,100174.59
2023-04-16T06:57:42.467Z,100167.56
2023-04-16T07:00:12.588Z,100173.63
2023-04-16T07:02:40.003Z,100176.59
2023-04-16T07:05:09.368Z,100174.13
2023-04-16T07:07:38.816Z,100188.97
2023-04-16T07:10:07.830Z,100183.59
2023-04-16T07:12:36.220Z,100186.06
2023-04-16T07:15:03.722Z,100180.09
2023-04-16T07:17:32.617Z,100183.00
2023-04-16T07:20:04.680Z,100183.88
2023-04-16T07:22:34.286Z,100190.66
2023-04-16T07:25:02.581Z,100187.91
2023-04-16T07:27:33.025Z,100187.28
2023-04-16T07:30:02.410Z,100188.09
2023-04-16T07:32:33.595Z,100186.72
2023-04-16T07:35:02.573Z,100188.47
2023-04-16T07:37:34.861Z,100186.13
2023-04-16T07:40:03.288Z,100192.84
2023-04-16T07:42:31.389Z,100183.84
2023-04-16T07:45:00.848Z,100183.34
2023-04-16T07:47:30.180Z,100184.78
2023-04-16T07:49:59.497Z,100180.97
2023-04-16T07:52:28.376Z,100175.66
2023-04-16T07:54:55.795Z,100173.75
2023-04-16T07:57:25.057Z,100164.59
2023-04-16T07:59:53.399Z,100176.72
2023-04-16T08:02:25.287Z,100167.03
2023-04-16T08:04:54.597Z,100164.66
2023-04-16T08:07:22.551Z,100176.72
2023-04-16T08:09:54.423Z,100173.72
2023-04-16T08:12:23.089Z,100179.19
2023-04-16T08:14:52.921Z,100180.25
2023-04-16T08:17:21.170Z,100181.66
2023-04-16T08:19:49.907Z,100175.41
2023-04-16T08:22:18.120Z,100178.34
2023-04-16T08:24:48.093Z,100179.56
2023-04-16T08:27:19.762Z,100180.41
2023-04-16T08:29:50.582Z,100175.16
2023-04-16T08:35:02.172Z,100175.22
2023-04-16T08:37:30.729Z,100181.00
2023-04-16T08:40:00.393Z,100179.47
2023-04-16T08:42:55.621Z,100175.53
2023-04-16T08:45:30.032Z,100178.13
2023-04-16T08:48:01.155Z,100175.06
2023-04-16T08:50:31.979Z,100177.03
2023-04-16T08:53:06.720Z,100182.47
2023-04-16T08:55:41.454Z,100181.41
2023-04-16T08:58:24.100Z,100188.22
2023-04-16T09:00:54.491Z,100183.19
2023-04-16T09:03:23.865Z,100184.88
2023-04-16T09:06:01.136Z,100185.38
2023-04-16T09:08:31.966Z,100180.28
2023-04-16T09:11:00.680Z,100181.50
2023-04-16T09:13:30.675Z,100184.00
2023-04-16T09:16:01.391Z,100187.13
2023-04-16T09:18:29.588Z,100183.22
2023-04-16T09:20:58.607Z,100188.91
2023-04-16T09:23:26.649Z,100196.06
2023-04-16T09:25:58.880Z,100189.59
2023-04-16T09:28:48.389Z,100190.16
2023-04-16T09:31:22.252Z,100190.72
2023-04-16T09:34:08.938Z,100198.25
2023-04-16T09:36:38.156Z,100204.16
2023-04-16T09:39:06.626Z,100204.78
2023-04-16T09:41:40.696Z,100203.34
2023-04-16T09:44:08.966Z,100211.44
2023-04-16T09:46:45.264Z,100204.94
2023-04-16T09:49:22.921Z,100216.13
2023-04-16T09:51:53.539Z,100222.78
2023-04-16T09:54:21.861Z,100226.38
2023-04-16T09:56:50.023Z,100219.78
2023-04-16T09:59:20.057Z,100227.53
2023-04-16T10:01:47.505Z,100221.06
2023-04-16T10:04:18.184Z,100241.28
2023-04-16T10:07:04.790Z,100237.41
2023-04-16T10:09:37.982Z,100233.16
2023-04-16T10:12:09.266Z,100241.22
2023-04-16T10:14:40.323Z,100232.25
2023-04-16T10:17:11.889Z,100236.00
2023-04-16T10:19:39.750Z,100240.47
2023-04-16T10:22:07.303Z,100245.44
2023-04-16T10:24:38.170Z,100240.41
2023-04-16T10:27:05.895Z,100243.59
2023-04-16T10:29:35.007Z,100250.09
2023-04-16T10:32:04.205Z,100236.47
2023-04-16T10:34:32.488Z,100236.13
2023-04-16T10:36:59.894Z,100238.88
2023-04-16T10:39:30.039Z,100238.88
2023-04-16T10:42:18.898Z,100236.81
2023-04-16T10:44:47.486Z,100238.56
2023-04-16T10:47:14.796Z,100243.88
2023-04-16T10:49:44.196Z,100244.56
2023-04-16T10:52:18.338Z,100245.66
2023-04-16T10:54:49.190Z,100240.34
2023-04-16T10:57:18.802Z,100249.59
2023-04-16T10:59:49.828Z,100253.50
2023-04-16T11:02:18.776Z,100259.03
2023-04-16T11:04:50.354Z,100253.28
2023-04-16T11:07:34.510Z,100254.03
2023-04-16T11:10:07.737Z,100258.63
2023-04-16T11:12:42.458Z,100252.13
2023-04-16T11:15:31.556Z,100255.78
2023-04-16T11:18:00.597Z,100250.88
2023-04-16T11:20:28.920Z,100261.13
2023-04-16T11:22:57.994Z,100259.25
2023-04-16T11:25:25.864Z,100265.31
2023-04-16T11:27:55.432Z,100267.66
2023-04-16T11:30:34.159Z,100266.50
2023-04-16T11:33:14.666Z,100269.84
2023-04-16T11:35:44.187Z,100270.91
2023-04-16T11:38:11.248Z,100275.53
2023-04-16T11:40:40.064Z,100273.22
2023-04-16T11:43:16.642Z,100274.34
2023-04-16T11:46:07.469Z,100271.88
2023-04-16T11:48:49.848Z,100271.88
2023-04-16T11:51:18.466Z,100265.81
2023-04-16T11:53:51.077Z,100274.34
2023-04-16T11:56:29.549Z,100266.31
2023-04-16T11:59:12.533Z,100271.56
2023-04-16T12:01:43.463Z,100267.31
2023-04-16T12:04:13.920Z,100263.66
2023-04-16T12:06:41.744Z,100261.00
2023-04-16T12:09:28.286Z,100264.66
2023-04-16T12:11:57.262Z,100262.91
2023-04-16T12:14:25.214Z,100267.91
2023-04-16T12:16:52.959Z,100269.56
2023-04-16T12:19:21.306Z,100266.84
2023-04-16T12:21:50.860Z,100268.63
2023-04-16T12:24:24.605Z,100264.88
2023-04-16T12:26:56.319Z,100271.44
2023-04-16T12:29:28.683Z,100259.09
2023-04-16T12:31:56.045Z,100267.78
2023-04-16T12:34:25.569Z,100264.66
2023-04-16T12:37:10.892Z,100266.31
2023-04-16T12:39:38.584Z,100269.84
2023-04-16T12:42:10.519Z,100265.47
2023-04-16T12:44:38.321Z,100269.72
2023-04-16T12:47:05.903Z,100261.94
2023-04-16T12:49:32.897Z,100263.53
2023-04-16T12:52:01.150Z,100262.94
2023-04-16T12:54:32.038Z,100261.94
2023-04-16T12:56:58.912Z,100258.53
2023-04-16T12:59:26.713Z,100254.56
2023-04-16T13:01:54.999Z,100262.22
2023-04-16T13:04:25.479Z,100263.13
2023-04-16T13:06:53.898Z,100251.47
2023-04-16T13:09:21.039Z,100261.13
2023-04-16T13:11:49.091Z,100255.75
2023-04-16T13:14:16.631Z,100259.28
2023-04-16T13:16:43.791Z,100261.28
2023-04-16T13:19:11.645Z,100267.53
2023-04-16T13:21:39.431Z,100258.19
2023-04-16T13:24:06.887Z,100260.78
2023-04-16T13:26:34.147Z,100263.31
2023-04-16T13:29:01.858Z,100257.34
2023-04-16T13:31:29.000Z,100259.59
2023-04-16T13:33:57.078Z,100257.84
2023-04-16T13:36:26.334Z,100258.94
2023-04-16T13:38:55.204Z,100260.94
2023-04-16T13:41:23.683Z,100263.06
2023-04-16T13:43:51.552Z,100260.94
2023-04-16T13:46:19.668Z,100258.84
2023-04-16T13:48:47.543Z,100258.91
2023-04-16T13:51:16.455Z,100261.06
2023-04-16T13:53:43.986Z,100255.06
2023-04-16T13:56:11.999Z,100269.38
2023-04-16T13:58:39.872Z,100253.91
2023-04-16T14:01:07.615Z,100255.63
2023-04-16T14:03:37.951Z,100251.41
2023-04-16T14:06:05.886Z,100255.22
2023-04-16T14:08:32.881Z,100258.69
2023-04-16T14:10:59.954Z,100258.00
2023-04-16T14:13:27.492Z,100261.72
2023-04-16T14:15:56.105Z,100252.50
2023-04-16T14:18:23.249Z,100254.41
2023-04-16T14:20:50.491Z,100256.31
2023-04-16T14:23:17.700Z,100255.78
2023-04-16T14:25:45.587Z,100254.84
2023-04-16T14:28:15.536Z,100256.63
2023-04-16T14:30:42.753Z,100248.06
2023-04-16T14:33:10.114Z,100255.63
2023-04-16T14:35:37.328Z,100256.59
2023-04-16T14:38:04.886Z,100255.75
2023-04-16T14:40:31.873Z,100253.50
2023-04-16T14:42:59.181Z,100268.41
2023-04-16T14:45:29.635Z,100264.94
2023-04-16T14:48:03.513Z,100264.31
2023-04-16T14:50:31.431Z,100266.41
2023-04-16T14:52:58.499Z,100269.84
2023-04-16T14:55:26.736Z,100274.53
2023-04-16T14:57:54.320Z,100280.88
2023-04-16T15:00:21.916Z,100275.63
2023-04-16T15:02:49.309Z,100278.28
2023-04-16T15:05:16.471Z,100275.78
2023-04-16T15:07:44.560Z,100270.53
2023-04-16T15:10:12.849Z,100264.63
2023-04-16T15:12:40.312Z,100262.19
2023-04-16T15:15:09.145Z,100263.13
2023-04-16T15:17:37.016Z,100258.56
2023-04-16T15:20:08.714Z,100265.53
2023-04-16T15:22:36.456Z,100257.72
2023-04-16T15:25:04.139Z,100258.81
2023-04-16T15:27:32.511Z,100255.19
2023-04-16T15:29:59.915Z,100257.88
2023-04-16T15:32:28.226Z,100255.56
2023-04-16T15:34:55.848Z,100254.66
2023-04-16T15:37:24.299Z,100254.81
2023-04-16T15:39:52.214Z,100258.38
2023-04-16T15:42:19.481Z,100263.91
2023-04-16T15:44:46.629Z,100257.97
2023-04-16T15:47:13.734Z,100258.88
2023-04-16T15:49:41.234Z,100258.13
2023-04-16T15:52:09.000Z,100260.19
2023-04-16T15:54:36.246Z,100268.13
2023-04-16T15:57:04.044Z,100260.13
2023-04-16T15:59:31.756Z,100262.72
2023-04-16T16:01:59.143Z,100255.91
2023-04-16T16:04:26.937Z,100266.63
2023-04-16T16:06:54.781Z,100270.34
2023-04-16T16:09:26.564Z,100278.25
2023-04-16T16:11:56.378Z,100276.44
2023-04-16T16:14:24.010Z,100274.84
2023-04-16T16:16:51.527Z,100274.97
2023-04-16T16:19:18.773Z,100272.41
2023-04-16T16:21:45.985Z,100276.91
2023-04-16T16:24:14.319Z,100274.38
2023-04-16T16:26:42.175Z,100277.09
2023-04-16T16:29:10.333Z,100280.81
2023-04-16T16:31:38.262Z,100283.47
2023-04-16T16:34:05.762Z,100271.38
2023-04-16T16:36:36.802Z,100280.06
2023-04-16T16:39:05.104Z,100274.88
2023-04-16T16:41:32.796Z,100283.72
2023-04-16T16:44:00.462Z,100287.28
2023-04-16T16:46:27.632Z,100288.34
2023-04-16T16:48:55.042Z,100284.00
2023-04-16T16:51:22.372Z,100287.53
2023-04-16T16:53:49.528Z,100293.72
2023-04-16T16:56:16.856Z,100294.63
2023-04-16T16:58:44.298Z,100295.63
2023-04-16T17:01:12.007Z,100300.88
2023-04-16T17:03:39.190Z,100303.66
2023-04-16T17:06:06.968Z,100299.50
2023-04-16T17:08:33.934Z,100301.09
2023-04-16T17:11:04.479Z,100296.84
2023-04-16T17:13:33.057Z,100307.47
2023-04-16T17:16:00.157Z,100309.22
2023-04-16T17:18:28.862Z,100311.88
2023-04-16T17:20:55.806Z,100309.28
2023-04-16T17:23:22.969Z,100312.03
2023-04-16T17:25:50.038Z,100317.34
2023-04-16T17:28:17.578Z,100312.03
2023-04-16T17:30:45.455Z,100315.59
2023-04-16T17:33:12.622Z,100316.44
2023-04-16T17:35:40.909Z,100315.59
2023-04-16T17:38:07.931Z,100325.41
2023-04-16T17:40:34.716Z,100325.31
2023-04-16T17:43:01.529Z,100336.66
2023-04-16T17:45:28.594Z,100334.91
2023-04-16T17:47:55.585Z,100328.84
2023-04-16T17:50:22.736Z,100329.72
2023-04-16T17:52:50.003Z,100333.34
2023-04-16T17:55:17.295Z,100335.09
2023-04-16T17:57:45.007Z,100342.16
2023-04-16T18:00:12.753Z,100341.22
2023-04-16T18:02:41.268Z,100343.97
2023-04-16T18:05:08.831Z,100348.28
2023-04-16T18:07:36.908Z,100345.63
2023-04-16T18:10:04.586Z,100344.78
2023-04-16T18:12:32.176Z,100337.69
2023-04-16T18:14:59.658Z,100343.91
2023-04-16T18:17:26.972Z,100346.50
2023-04-16T18:19:54.283Z,100353.59
2023-04-16T18:22:21.818Z,100354.53
2023-04-16T18:24:48.921Z,100351.06
2023-04-16T18:27:16.767Z,100351.19
2023-04-16T18:29:45.238Z,100357.22
2023-04-16T18:32:12.674Z,100360.78
2023-04-16T18:34:39.708Z,100352.03
2023-04-16T18:37:06.927Z,100352.84
2023-04-16T18:39:34.172Z,100358.19
2023-04-16T18:42:02.062Z,100354.63
2023-04-16T18:44:29.521Z,100357.28
2023-04-16T18:46:57.074Z,100353.03
2023-04-16T18:49:24.898Z,100354.03
2023-04-16T18:51:52.240Z,100349.69
2023-04-16T18:54:20.571Z,100353.16
2023-04-16T18:56:50.471Z,100352.16
2023-04-16T18:59:17.304Z,100355.00
2023-04-16T19:01:44.494Z,100357.69
2023-04-16T19:04:11.920Z,100353.31
2023-04-16T19:06:39.328Z,100352.34
2023-04-16T19:09:07.875Z,100355.06
2023-04-16T19:11:35.852Z,100347.91
2023-04-16T19:14:03.609Z,100349.69
2023-04-16T19:16:30.923Z,100345.28
2023-04-16T19:18:58.328Z,100348.75
2023-04-16T19:21:26.047Z,100350.50
2023-04-16T19:23:53.016Z,100347.91
2023-04-16T19:26:20.290Z,100341.78
2023-04-16T19:28:47.680Z,100339.97
2023-04-16T19:31:14.899Z,100347.06
2023-04-16T19:33:41.979Z,100334.81
2023-04-16T19:36:09.205Z,100345.31
2023-04-16T19:38:36.108Z,100347.09
2023-04-16T19:41:03.231Z,100341.81
2023-04-16T19:43:31.164Z,100341.91
2023-04-16T19:45:58.243Z,100344.41
2023-04-16T19:48:25.168Z,100333.00
2023-04-16T19:50:52.423Z,100343.59
2023-04-16T19:53:19.310Z,100336.66
2023-04-16T19:55:46.360Z,100339.97
2023-04-16T19:58:14.865Z,100331.19
2023-04-16T20:00:42.528Z,100334.75
2023-04-16T20:03:10.248Z,100328.50
2023-04-16T20:05:37.357Z,100322.47
2023-04-16T20:08:04.509Z,100329.56
2023-04-16T20:10:31.723Z,100319.81
2023-04-16T20:12:58.729Z,100321.66
2023-04-16T20:15:26.000Z,100316.38
2023-04-16T20:17:55.671Z,100317.16
2023-04-16T20:20:23.852Z,100320.66
2023-04-16T20:22:51.087Z,100333.88
2023-04-16T20:25:21.802Z,100325.97
2023-04-16T20:27:48.552Z,100322.41
2023-04-16T20:30:15.703Z,100323.28
2023-04-16T20:32:42.902Z,100320.63
2023-04-16T20:35:13.288Z,100325.00
2023-04-16T20:37:42.343Z,100324.13
2023-04-16T20:40:11.025Z,100320.59
2023-04-16T20:42:38.180Z,100323.28
2023-04-16T20:45:05.806Z,100321.47
2023-04-16T20:47:35.110Z,100323.22
2023-04-16T20:50:03.108Z,100325.88
2023-04-16T20:52:30.371Z,100320.59
2023-04-16T20:54:58.199Z,100321.44
2023-04-16T20:57:25.910Z,100319.69
2023-04-16T20:59:53.087Z,100322.31
2023-04-16T21:02:20.848Z,100317.03
2023-04-16T21:04:48.349Z,100319.72
2023-04-16T21:07:15.849Z,100317.09
2023-04-16T21:09:42.591Z,100314.47
2023-04-16T21:12:09.786Z,100315.34
2023-04-16T21:14:36.709Z,100320.63
2023-04-16T21:17:03.888Z,100321.53
2023-04-16T21:19:31.140Z,100318.97
2023-04-16T21:21:58.271Z,100312.84
2023-04-16T21:24:25.440Z,100305.84
2023-04-16T21:26:52.763Z,100308.78
2023-04-16T21:29:19.561Z,100310.38
2023-04-16T21:31:46.846Z,100305.00
2023-04-16T21:34:14.028Z,100305.03
2023-04-16T21:36:41.189Z,100299.03
2023-04-16T21:39:08.326Z,100299.50
2023-04-16T21:41:35.140Z,100299.66
2023-04-16T21:44:02.148Z,100302.16
2023-04-16T21:46:29.457Z,100300.38
2023-04-16T21:48:56.739Z,100293.28
2023-04-16T21:51:29.521Z,100297.03
2023-04-16T21:53:57.277Z,100295.16
2023-04-16T21:56:27.819Z,100292.44
2023-04-16T21:58:54.820Z,100301.13
2023-04-16T22:01:22.225Z,100293.34
2023-04-16T22:03:50.943Z,100293.56
2023-04-16T22:06:18.740Z,100290.25
2023-04-16T22:08:46.410Z,100285.22
2023-04-16T22:11:13.386Z,100286.44
2023-04-16T22:13:42.514Z,100290.38
2023-04-16T22:16:11.594Z,100285.97
2023-04-16T22:18:39.901Z,100287.13
2023-04-16T22:21:07.120Z,100286.06
2023-04-16T22:23:33.977Z,100285.06
2023-04-16T22:26:02.964Z,100286.53
2023-04-16T22:28:30.178Z,100281.97
2023-04-16T22:30:57.651Z,100280.13
2023-04-16T22:33:24.768Z,100281.09
2023-04-16T22:35:53.735Z,100282.84
2023-04-16T22:38:21.387Z,100276.50
2023-04-16T22:40:49.162Z,100280.31
2023-04-16T22:43:17.907Z,100279.19
2023-04-16T22:45:46.459Z,100267.09
2023-04-16T22:48:13.501Z,100274.16
2023-04-16T22:50:46.198Z,100274.69
2023-04-16T22:53:12.882Z,100279.13
2023-04-16T22:55:40.009Z,100278.25
2023-04-16T22:58:07.195Z,100271.81
2023-04-16T23:00:35.501Z,100271.09
2023-04-16T23:03:02.889Z,100269.19
2023-04-16T23:05:30.024Z,100260.22
2023-04-16T23:07:57.123Z,100262.91
2023-04-16T23:10:24.334Z,100266.28
2023-04-16T23:12:51.387Z,100254.72
2023-04-16T23:15:18.847Z,100257.34
2023-04-16T23:17:47.672Z,100245.16
2023-04-16T23:20:14.918Z,100245.84
2023-04-16T23:22:42.118Z,100240.47
2023-04-16T23:25:10.079Z,100237.28
2023-04-16T23:27:37.668Z,100240.16
2023-04-16T23:30:05.572Z,100235.69
2023-04-16T23:32:34.471Z,100235.88
2023-04-16T23:35:01.726Z,100238.63
2023-04-16T23:37:28.767Z,100238.56
2023-04-16T23:39:55.965Z,100236.81
2023-04-16T23:42:22.779Z,100245.13
2023-04-16T23:44:49.812Z,100232.94
2023-04-16T23:47:17.058Z,100232.91
2023-04-16T23:49:43.928Z,100236.47
2023-04-16T23:52:10.966Z,100235.75
2023-04-16T23:54:38.087Z,100234.63
2023-04-16T23:57:05.329Z,100230.22
2023-04-16T23:59:32.387Z,100223.91
